Terminal Aerodrome Forecast
Issued by NWS

Home | Current Version | Previous Version | Text Only | Print | Product List | Glossary On
Versions: 1 2 3 4 5 6 7 8 9 10 11 12 13 14 15 16 17 18 19 20 21 22 23 24
556
FTUS43 KABR 291724 AAB
TAFATY
TAF AMD
KATY 291724Z 2917/3018 34014KT P6SM FEW060
     FM300200 VRB05KT P6SM FEW250
     FM301600 17009KT P6SM BKN250=

USA.gov is the U.S. government's official web portal to all federal, state and local government web resources and services.